Hovedside
METAR-TAF:

METAR-TAF

Lufthavner :

Mumbai, India

breddegrad: 19-05-53N, lengdegrad: 072-50-02E, høyde over havet: 4 m

Gjeldene værobservasjon

Denne rapporten ble laget for 9 timer og 13 minutter siden, klokken 12:30 UTC
Vind 5 kt fra Sør
Temperatur 30°C
Luftfuktighet 79%
Trykk 1004 hPa
Sikt: 4000 m
Spredte skyer i en høyde av 2000 ft
Brutte skyer i en høyde av 10000 ft
dis,

METAR: VAJJ 141230Z 19005KT 4000 HZ SCT020 BKN100 30/26 Q1004 NOSIG

Tid: 03:13 (21:43 UTC)


TAF: fraværende

Værobservasjoner og værvarsel for over 4000 flyplasser (METAR- og TAF-rapporter).

Tilgjengelige stasjoner er representert av de røde og gule prikkene på kartet.

Hold musepekeren over prikken for å se navnet på stasjonen.

Klikk så for å se værobservasjoner og -varsler.

For å forandre kartet kan du klikke på den grønne knappen med svart kryss for å zoome inn, på den grønne knappen med strek for å zoome ut, eller på de grønne pilene for å se tilstøtende kart.


METAR-TAF: